Strattanville, Pennsylvania
Current Conditions -  °F | °C
As of 1:53 PM on Thursday 30 Oct 2014 (Local Time) from KDUJ Reporting Station
Overcast Overcast  
Wind Chill: 41°   Ceiling: 3500
Heat Index: 45°   Visibility: 10mi
Dew Point: 34°   Wind: 8mph
Humidity: 65%   Direction: 290°WNW
Pressure: 30.04"   Gusts: NA
Location:  41.2°N, 79.33°W
Report Text: KDUJ 301753Z AUTO 29007KT 10SM OVC035 07/01 A3004 RMK AO2 SLP179 T00720011 10089 20050 58005
Loading
Personal Weather Stations






























Interactive Weather Map
Tropical Storm Tracking
New forecast layout! Learn more

10-Day Weather Forecast

Advertisements
Track Severe Weather on mobile